sensor_id;sensor_type;location;lat;lon;timestamp;temperature;humidity
3300;DHT22;1662;49.310;8.134;2022-12-26T00:00:37;12.50;99.90
3300;DHT22;1662;49.310;8.134;2022-12-26T00:03:03;12.50;99.90
3300;DHT22;1662;49.310;8.134;2022-12-26T00:05:34;12.40;99.90
3300;DHT22;1662;49.310;8.134;2022-12-26T00:08:01;12.30;99.90
3300;DHT22;1662;49.310;8.134;2022-12-26T00:10:26;12.40;99.90
3300;DHT22;1662;49.310;8.134;2022-12-26T00:14:56;12.40;99.90
3300;DHT22;1662;49.310;8.134;2022-12-26T00:17:22;12.50;99.90
3300;DHT22;1662;49.310;8.134;2022-12-26T00:19:47;12.50;99.90
3300;DHT22;1662;49.310;8.134;2022-12-26T00:22:13;12.50;99.90
3300;DHT22;1662;49.310;8.134;2022-12-26T00:24:40;12.60;99.90
3300;DHT22;1662;49.310;8.134;2022-12-26T00:27:05;12.60;99.90
3300;DHT22;1662;49.310;8.134;2022-12-26T00:29:31;12.70;99.90
3300;DHT22;1662;49.310;8.134;2022-12-26T00:34:26;12.70;99.90
3300;DHT22;1662;49.310;8.134;2022-12-26T00:36:54;12.50;99.90
3300;DHT22;1662;49.310;8.134;2022-12-26T00:39:20;12.50;99.90
3300;DHT22;1662;49.310;8.134;2022-12-26T00:41:45;12.50;99.90
3300;DHT22;1662;49.310;8.134;2022-12-26T00:44:11;12.50;99.90
3300;DHT22;1662;49.310;8.134;2022-12-26T00:46:37;12.60;99.90
3300;DHT22;1662;49.310;8.134;2022-12-26T00:49:02;12.60;99.90
3300;DHT22;1662;49.310;8.134;2022-12-26T00:53:26;12.60;99.90
3300;DHT22;1662;49.310;8.134;2022-12-26T00:55:54;12.60;99.90
3300;DHT22;1662;49.310;8.134;2022-12-26T00:58:20;12.60;99.90
3300;DHT22;1662;49.310;8.134;2022-12-26T01:00:47;12.60;99.90
3300;DHT22;1662;49.310;8.134;2022-12-26T01:03:13;12.50;99.90
3300;DHT22;1662;49.310;8.134;2022-12-26T01:05:46;12.60;99.90
3300;DHT22;1662;49.310;8.134;2022-12-26T01:08:13;12.60;99.90
3300;DHT22;1662;49.310;8.134;2022-12-26T01:12:39;12.60;99.90
3300;DHT22;1662;49.310;8.134;2022-12-26T01:15:06;12.60;99.90
3300;DHT22;1662;49.310;8.134;2022-12-26T01:17:32;12.60;99.90
3300;DHT22;1662;49.310;8.134;2022-12-26T01:19:58;12.60;99.90
3300;DHT22;1662;49.310;8.134;2022-12-26T01:22:24;12.70;99.90
3300;DHT22;1662;49.310;8.134;2022-12-26T01:24:54;12.70;99.90
3300;DHT22;1662;49.310;8.134;2022-12-26T01:27:20;12.70;99.90
3300;DHT22;1662;49.310;8.134;2022-12-26T01:30:46;12.80;99.90
3300;DHT22;1662;49.310;8.134;2022-12-26T01:33:14;12.90;99.90
3300;DHT22;1662;49.310;8.134;2022-12-26T01:35:48;12.80;99.90
3300;DHT22;1662;49.310;8.134;2022-12-26T01:38:14;12.80;99.90
3300;DHT22;1662;49.310;8.134;2022-12-26T01:40:42;12.80;99.90
3300;DHT22;1662;49.310;8.134;2022-12-26T01:43:15;12.80;99.90
3300;DHT22;1662;49.310;8.134;2022-12-26T01:45:44;12.90;99.90
3300;DHT22;1662;49.310;8.134;2022-12-26T01:50:54;12.90;99.90
3300;DHT22;1662;49.310;8.134;2022-12-26T01:53:36;13.00;99.90
3300;DHT22;1662;49.310;8.134;2022-12-26T01:56:10;13.00;99.90
3300;DHT22;1662;49.310;8.134;2022-12-26T01:58:42;13.10;99.90
3300;DHT22;1662;49.310;8.134;2022-12-26T02:01:11;13.10;99.90
3300;DHT22;1662;49.310;8.134;2022-12-26T02:03:38;13.10;99.90
3300;DHT22;1662;49.310;8.134;2022-12-26T02:08:37;13.10;99.90
3300;DHT22;1662;49.310;8.134;2022-12-26T02:11:06;13.10;99.90
3300;DHT22;1662;49.310;8.134;2022-12-26T02:13:37;13.10;99.90
3300;DHT22;1662;49.310;8.134;2022-12-26T02:16:04;13.10;99.90
3300;DHT22;1662;49.310;8.134;2022-12-26T02:18:31;13.10;99.90
3300;DHT22;1662;49.310;8.134;2022-12-26T02:34:23;12.90;99.90
3300;DHT22;1662;49.310;8.134;2022-12-26T02:47:49;13.00;99.90
3300;DHT22;1662;49.310;8.134;2022-12-26T02:50:57;12.80;99.90
3300;DHT22;1662;49.310;8.134;2022-12-26T02:56:36;12.80;99.90
3300;DHT22;1662;49.310;8.134;2022-12-26T02:59:31;12.90;99.90
3300;DHT22;1662;49.310;8.134;2022-12-26T03:02:41;13.00;99.90
3300;DHT22;1662;49.310;8.134;2022-12-26T03:07:23;12.80;99.90
3300;DHT22;1662;49.310;8.134;2022-12-26T03:10:17;12.90;99.90
3300;DHT22;1662;49.310;8.134;2022-12-26T03:13:08;12.90;99.90
3300;DHT22;1662;49.310;8.134;2022-12-26T03:15:50;12.80;99.90
3300;DHT22;1662;49.310;8.134;2022-12-26T03:18:38;12.90;99.90
3300;DHT22;1662;49.310;8.134;2022-12-26T03:21:06;12.90;99.90
3300;DHT22;1662;49.310;8.134;2022-12-26T03:26:16;12.80;99.90
3300;DHT22;1662;49.310;8.134;2022-12-26T03:29:01;12.80;99.90
3300;DHT22;1662;49.310;8.134;2022-12-26T03:31:48;12.80;99.90
3300;DHT22;1662;49.310;8.134;2022-12-26T03:34:14;12.80;99.90
3300;DHT22;1662;49.310;8.134;2022-12-26T03:36:57;12.80;99.90
3300;DHT22;1662;49.310;8.134;2022-12-26T03:51:54;12.70;99.90
3300;DHT22;1662;49.310;8.134;2022-12-26T03:55:03;12.60;99.90
3300;DHT22;1662;49.310;8.134;2022-12-26T04:00:43;12.60;99.90
3300;DHT22;1662;49.310;8.134;2022-12-26T04:05:51;12.50;99.90
3300;DHT22;1662;49.310;8.134;2022-12-26T04:08:54;12.50;99.90
3300;DHT22;1662;49.310;8.134;2022-12-26T04:11:40;12.50;99.90
3300;DHT22;1662;49.310;8.134;2022-12-26T04:24:19;12.60;99.90
3300;DHT22;1662;49.310;8.134;2022-12-26T04:27:07;12.70;99.90
3300;DHT22;1662;49.310;8.134;2022-12-26T04:29:54;12.70;99.90
3300;DHT22;1662;49.310;8.134;2022-12-26T04:32:43;12.80;99.90
3300;DHT22;1662;49.310;8.134;2022-12-26T04:38:26;12.80;99.90
3300;DHT22;1662;49.310;8.134;2022-12-26T04:43:42;12.70;99.90
3300;DHT22;1662;49.310;8.134;2022-12-26T04:46:30;12.90;99.90
3300;DHT22;1662;49.310;8.134;2022-12-26T04:48:56;12.80;99.90
3300;DHT22;1662;49.310;8.134;2022-12-26T04:51:40;12.90;99.90
3300;DHT22;1662;49.310;8.134;2022-12-26T04:54:06;12.90;99.90
3300;DHT22;1662;49.310;8.134;2022-12-26T04:56:32;12.90;99.90
3300;DHT22;1662;49.310;8.134;2022-12-26T04:58:57;12.80;99.90
3300;DHT22;1662;49.310;8.134;2022-12-26T05:02:38;12.80;99.90
3300;DHT22;1662;49.310;8.134;2022-12-26T05:05:22;12.80;99.90
3300;DHT22;1662;49.310;8.134;2022-12-26T05:08:20;12.90;99.90
3300;DHT22;1662;49.310;8.134;2022-12-26T05:11:06;12.90;99.90
3300;DHT22;1662;49.310;8.134;2022-12-26T05:13:31;12.80;99.90
3300;DHT22;1662;49.310;8.134;2022-12-26T05:15:59;12.80;99.90
3300;DHT22;1662;49.310;8.134;2022-12-26T05:18:43;12.70;99.90
3300;DHT22;1662;49.310;8.134;2022-12-26T05:23:25;12.70;99.90
3300;DHT22;1662;49.310;8.134;2022-12-26T05:26:16;12.70;99.90
3300;DHT22;1662;49.310;8.134;2022-12-26T05:29:01;12.60;99.90
3300;DHT22;1662;49.310;8.134;2022-12-26T05:31:28;12.60;99.90
3300;DHT22;1662;49.310;8.134;2022-12-26T05:33:54;12.60;99.90
3300;DHT22;1662;49.310;8.134;2022-12-26T05:36:44;12.60;99.90
3300;DHT22;1662;49.310;8.134;2022-12-26T05:39:10;12.70;99.90
3300;DHT22;1662;49.310;8.134;2022-12-26T05:42:50;12.60;99.90
3300;DHT22;1662;49.310;8.134;2022-12-26T05:45:16;12.50;99.90
3300;DHT22;1662;49.310;8.134;2022-12-26T05:47:41;12.60;99.90
3300;DHT22;1662;49.310;8.134;2022-12-26T05:50:07;12.60;99.90
3300;DHT22;1662;49.310;8.134;2022-12-26T05:52:33;12.70;99.90
3300;DHT22;1662;49.310;8.134;2022-12-26T05:54:58;12.60;99.90
3300;DHT22;1662;49.310;8.134;2022-12-26T05:57:24;12.60;99.90
3300;DHT22;1662;49.310;8.134;2022-12-26T05:59:49;12.50;99.90
3300;DHT22;1662;49.310;8.134;2022-12-26T06:03:01;12.40;99.90
3300;DHT22;1662;49.310;8.134;2022-12-26T06:05:27;12.50;99.90
3300;DHT22;1662;49.310;8.134;2022-12-26T06:07:53;12.40;99.90
3300;DHT22;1662;49.310;8.134;2022-12-26T06:10:19;12.40;99.90
3300;DHT22;1662;49.310;8.134;2022-12-26T06:12:45;12.50;99.90
3300;DHT22;1662;49.310;8.134;2022-12-26T06:15:10;12.50;99.90
3300;DHT22;1662;49.310;8.134;2022-12-26T06:17:38;12.40;99.90
3300;DHT22;1662;49.310;8.134;2022-12-26T06:21:45;12.40;99.90
3300;DHT22;1662;49.310;8.134;2022-12-26T06:24:11;12.50;99.90
3300;DHT22;1662;49.310;8.134;2022-12-26T06:26:38;12.40;99.90
3300;DHT22;1662;49.310;8.134;2022-12-26T06:29:04;12.40;99.90
3300;DHT22;1662;49.310;8.134;2022-12-26T06:31:29;12.50;99.90
3300;DHT22;1662;49.310;8.134;2022-12-26T06:33:57;12.40;99.90
3300;DHT22;1662;49.310;8.134;2022-12-26T06:36:24;12.40;99.90
3300;DHT22;1662;49.310;8.134;2022-12-26T06:41:14;12.40;99.90
3300;DHT22;1662;49.310;8.134;2022-12-26T06:43:40;12.30;99.90
3300;DHT22;1662;49.310;8.134;2022-12-26T06:46:08;12.20;99.90
3300;DHT22;1662;49.310;8.134;2022-12-26T06:48:34;12.10;99.90
3300;DHT22;1662;49.310;8.134;2022-12-26T06:51:10;12.10;99.90
3300;DHT22;1662;49.310;8.134;2022-12-26T06:53:35;12.10;99.90
3300;DHT22;1662;49.310;8.134;2022-12-26T06:56:09;12.00;99.90
3300;DHT22;1662;49.310;8.134;2022-12-26T07:01:14;12.00;99.90
3300;DHT22;1662;49.310;8.134;2022-12-26T07:03:40;11.90;99.90
3300;DHT22;1662;49.310;8.134;2022-12-26T07:06:11;12.00;99.90
3300;DHT22;1662;49.310;8.134;2022-12-26T07:08:39;12.00;99.90
3300;DHT22;1662;49.310;8.134;2022-12-26T07:11:12;12.00;99.90
3300;DHT22;1662;49.310;8.134;2022-12-26T07:13:38;11.90;99.90
3300;DHT22;1662;49.310;8.134;2022-12-26T07:16:06;11.90;99.90
3300;DHT22;1662;49.310;8.134;2022-12-26T07:20:18;11.90;99.90
3300;DHT22;1662;49.310;8.134;2022-12-26T07:22:44;11.90;99.90
3300;DHT22;1662;49.310;8.134;2022-12-26T07:25:10;11.90;99.90
3300;DHT22;1662;49.310;8.134;2022-12-26T07:27:35;11.90;99.90
3300;DHT22;1662;49.310;8.134;2022-12-26T07:30:01;11.80;99.90
3300;DHT22;1662;49.310;8.134;2022-12-26T07:32:26;11.70;99.90
3300;DHT22;1662;49.310;8.134;2022-12-26T07:34:52;11.80;99.90
3300;DHT22;1662;49.310;8.134;2022-12-26T07:39:55;11.70;99.90
3300;DHT22;1662;49.310;8.134;2022-12-26T07:42:20;11.70;99.90
3300;DHT22;1662;49.310;8.134;2022-12-26T07:44:46;11.80;99.90
3300;DHT22;1662;49.310;8.134;2022-12-26T07:47:14;11.90;99.90
3300;DHT22;1662;49.310;8.134;2022-12-26T07:49:39;11.90;99.90
3300;DHT22;1662;49.310;8.134;2022-12-26T07:52:05;11.90;99.90
3300;DHT22;1662;49.310;8.134;2022-12-26T07:54:30;11.80;99.90
3300;DHT22;1662;49.310;8.134;2022-12-26T07:59:24;11.80;99.90
3300;DHT22;1662;49.310;8.134;2022-12-26T08:01:50;11.90;99.90
3300;DHT22;1662;49.310;8.134;2022-12-26T08:04:15;12.00;99.90
3300;DHT22;1662;49.310;8.134;2022-12-26T08:06:41;12.00;99.90
3300;DHT22;1662;49.310;8.134;2022-12-26T08:09:06;11.90;99.90
3300;DHT22;1662;49.310;8.134;2022-12-26T08:11:34;12.00;99.90
3300;DHT22;1662;49.310;8.134;2022-12-26T08:14:00;11.90;99.90
3300;DHT22;1662;49.310;8.134;2022-12-26T08:18:50;11.90;99.90
3300;DHT22;1662;49.310;8.134;2022-12-26T08:21:16;12.00;99.90
3300;DHT22;1662;49.310;8.134;2022-12-26T08:23:42;12.00;99.90
3300;DHT22;1662;49.310;8.134;2022-12-26T08:26:10;11.90;99.90
3300;DHT22;1662;49.310;8.134;2022-12-26T08:28:38;11.90;99.90
3300;DHT22;1662;49.310;8.134;2022-12-26T08:31:06;12.00;99.90
3300;DHT22;1662;49.310;8.134;2022-12-26T08:33:32;11.90;99.90
3300;DHT22;1662;49.310;8.134;2022-12-26T08:38:03;11.80;99.90
3300;DHT22;1662;49.310;8.134;2022-12-26T08:40:29;11.80;99.90
3300;DHT22;1662;49.310;8.134;2022-12-26T08:42:55;11.70;99.90
3300;DHT22;1662;49.310;8.134;2022-12-26T08:45:21;11.60;99.90
3300;DHT22;1662;49.310;8.134;2022-12-26T08:47:48;11.60;99.90
3300;DHT22;1662;49.310;8.134;2022-12-26T08:50:14;11.60;99.90
3300;DHT22;1662;49.310;8.134;2022-12-26T08:52:40;11.60;99.90
3300;DHT22;1662;49.310;8.134;2022-12-26T08:57:43;11.60;99.90
3300;DHT22;1662;49.310;8.134;2022-12-26T09:00:09;11.50;99.90
3300;DHT22;1662;49.310;8.134;2022-12-26T09:02:35;11.40;99.90
3300;DHT22;1662;49.310;8.134;2022-12-26T09:05:00;11.40;99.90
3300;DHT22;1662;49.310;8.134;2022-12-26T09:07:26;11.50;99.90
3300;DHT22;1662;49.310;8.134;2022-12-26T09:09:51;11.40;99.90
3300;DHT22;1662;49.310;8.134;2022-12-26T09:12:17;11.40;99.90
3300;DHT22;1662;49.310;8.134;2022-12-26T09:17:39;11.40;99.90
3300;DHT22;1662;49.310;8.134;2022-12-26T09:20:05;11.30;99.90
3300;DHT22;1662;49.310;8.134;2022-12-26T09:22:33;11.30;99.90
3300;DHT22;1662;49.310;8.134;2022-12-26T09:25:18;11.30;99.90
3300;DHT22;1662;49.310;8.134;2022-12-26T09:27:47;11.40;99.90
3300;DHT22;1662;49.310;8.134;2022-12-26T09:30:13;11.40;99.90
3300;DHT22;1662;49.310;8.134;2022-12-26T09:33:51;11.40;99.90
3300;DHT22;1662;49.310;8.134;2022-12-26T09:36:27;11.40;99.90
3300;DHT22;1662;49.310;8.134;2022-12-26T09:38:55;11.30;99.90
3300;DHT22;1662;49.310;8.134;2022-12-26T09:47:31;11.40;99.90
3300;DHT22;1662;49.310;8.134;2022-12-26T09:50:11;11.30;99.90
3300;DHT22;1662;49.310;8.134;2022-12-26T09:54:05;11.30;99.90
3300;DHT22;1662;49.310;8.134;2022-12-26T09:56:32;11.30;99.90
3300;DHT22;1662;49.310;8.134;2022-12-26T09:59:07;11.30;99.90
3300;DHT22;1662;49.310;8.134;2022-12-26T10:01:36;11.30;99.90
3300;DHT22;1662;49.310;8.134;2022-12-26T10:04:08;11.30;99.90
3300;DHT22;1662;49.310;8.134;2022-12-26T10:06:39;11.40;99.90
3300;DHT22;1662;49.310;8.134;2022-12-26T10:13:41;11.60;99.90
3300;DHT22;1662;49.310;8.134;2022-12-26T10:16:19;11.60;99.90
3300;DHT22;1662;49.310;8.134;2022-12-26T10:24:19;11.50;99.90
3300;DHT22;1662;49.310;8.134;2022-12-26T10:26:52;11.60;99.90
3300;DHT22;1662;49.310;8.134;2022-12-26T10:29:29;11.60;99.90
3300;DHT22;1662;49.310;8.134;2022-12-26T10:34:06;11.70;99.90
3300;DHT22;1662;49.310;8.134;2022-12-26T10:36:39;11.60;99.90
3300;DHT22;1662;49.310;8.134;2022-12-26T10:39:19;11.60;99.90
3300;DHT22;1662;49.310;8.134;2022-12-26T10:41:50;11.70;99.90
3300;DHT22;1662;49.310;8.134;2022-12-26T10:44:17;11.70;99.90
3300;DHT22;1662;49.310;8.134;2022-12-26T10:46:55;11.80;99.90
3300;DHT22;1662;49.310;8.134;2022-12-26T10:49:24;11.80;99.90
3300;DHT22;1662;49.310;8.134;2022-12-26T10:54:15;11.80;99.90
3300;DHT22;1662;49.310;8.134;2022-12-26T10:56:42;11.80;99.90
3300;DHT22;1662;49.310;8.134;2022-12-26T10:59:22;11.80;99.90
3300;DHT22;1662;49.310;8.134;2022-12-26T11:01:50;11.90;99.90
3300;DHT22;1662;49.310;8.134;2022-12-26T11:04:23;11.80;99.90
3300;DHT22;1662;49.310;8.134;2022-12-26T11:06:51;11.90;99.90
3300;DHT22;1662;49.310;8.134;2022-12-26T11:09:32;11.90;99.90
3300;DHT22;1662;49.310;8.134;2022-12-26T11:14:39;11.90;99.90
3300;DHT22;1662;49.310;8.134;2022-12-26T11:17:39;11.80;99.90
3300;DHT22;1662;49.310;8.134;2022-12-26T11:22:45;11.80;99.90
3300;DHT22;1662;49.310;8.134;2022-12-26T11:25:24;11.80;99.90
3300;DHT22;1662;49.310;8.134;2022-12-26T11:27:58;11.80;99.90
3300;DHT22;1662;49.310;8.134;2022-12-26T11:30:30;11.90;99.90
3300;DHT22;1662;49.310;8.134;2022-12-26T11:34:15;11.90;99.90
3300;DHT22;1662;49.310;8.134;2022-12-26T11:36:49;12.00;99.90
3300;DHT22;1662;49.310;8.134;2022-12-26T11:39:22;12.00;99.90
3300;DHT22;1662;49.310;8.134;2022-12-26T11:41:49;12.00;99.90
3300;DHT22;1662;49.310;8.134;2022-12-26T11:44:33;12.20;99.90
3300;DHT22;1662;49.310;8.134;2022-12-26T11:47:15;12.20;99.90
3300;DHT22;1662;49.310;8.134;2022-12-26T11:50:14;12.20;99.90
3300;DHT22;1662;49.310;8.134;2022-12-26T11:53:30;12.30;99.90
3300;DHT22;1662;49.310;8.134;2022-12-26T11:56:01;12.20;99.90
3300;DHT22;1662;49.310;8.134;2022-12-26T11:58:30;12.30;99.90
3300;DHT22;1662;49.310;8.134;2022-12-26T12:03:46;12.10;99.90
3300;DHT22;1662;49.310;8.134;2022-12-26T12:21:27;12.20;99.90
3300;DHT22;1662;49.310;8.134;2022-12-26T12:24:14;12.20;99.90
3300;DHT22;1662;49.310;8.134;2022-12-26T12:27:24;12.20;99.90
3300;DHT22;1662;49.310;8.134;2022-12-26T12:35:37;12.30;99.90
3300;DHT22;1662;49.310;8.134;2022-12-26T12:45:51;12.40;99.90
3300;DHT22;1662;49.310;8.134;2022-12-26T12:51:45;12.40;99.90
3300;DHT22;1662;49.310;8.134;2022-12-26T12:54:32;12.20;99.90
3300;DHT22;1662;49.310;8.134;2022-12-26T12:59:48;12.30;99.90
3300;DHT22;1662;49.310;8.134;2022-12-26T13:05:28;12.10;99.90
3300;DHT22;1662;49.310;8.134;2022-12-26T13:10:28;12.20;99.90
3300;DHT22;1662;49.310;8.134;2022-12-26T13:12:55;12.10;99.90
3300;DHT22;1662;49.310;8.134;2022-12-26T13:15:41;12.10;99.90
3300;DHT22;1662;49.310;8.134;2022-12-26T13:18:12;12.20;99.90
3300;DHT22;1662;49.310;8.134;2022-12-26T13:20:48;12.20;99.90
3300;DHT22;1662;49.310;8.134;2022-12-26T13:23:29;12.20;99.90
3300;DHT22;1662;49.310;8.134;2022-12-26T13:26:20;12.20;99.90
3300;DHT22;1662;49.310;8.134;2022-12-26T13:28:53;12.20;99.90
3300;DHT22;1662;49.310;8.134;2022-12-26T13:31:20;12.20;99.90
3300;DHT22;1662;49.310;8.134;2022-12-26T13:33:46;12.10;99.90
3300;DHT22;1662;49.310;8.134;2022-12-26T13:36:33;12.10;99.90
3300;DHT22;1662;49.310;8.134;2022-12-26T13:41:28;12.10;99.90
3300;DHT22;1662;49.310;8.134;2022-12-26T13:49:52;12.20;99.90
3300;DHT22;1662;49.310;8.134;2022-12-26T13:52:30;12.10;99.90
3300;DHT22;1662;49.310;8.134;2022-12-26T13:57:39;12.10;99.90
3300;DHT22;1662;49.310;8.134;2022-12-26T14:00:16;12.10;99.90
3300;DHT22;1662;49.310;8.134;2022-12-26T14:05:20;12.10;99.90
3300;DHT22;1662;49.310;8.134;2022-12-26T14:19:34;11.90;99.90
3300;DHT22;1662;49.310;8.134;2022-12-26T14:33:34;12.00;99.90
3300;DHT22;1662;49.310;8.134;2022-12-26T14:44:57;11.90;99.90
3300;DHT22;1662;49.310;8.134;2022-12-26T14:47:45;12.00;99.90
3300;DHT22;1662;49.310;8.134;2022-12-26T15:11:42;12.00;99.90
3300;DHT22;1662;49.310;8.134;2022-12-26T15:17:13;11.90;99.90
3300;DHT22;1662;49.310;8.134;2022-12-26T15:25:50;11.70;99.90
3300;DHT22;1662;49.310;8.134;2022-12-26T15:37:40;11.80;99.90
3300;DHT22;1662;49.310;8.134;2022-12-26T15:41:04;11.70;99.90
3300;DHT22;1662;49.310;8.134;2022-12-26T15:44:54;11.60;99.90
3300;DHT22;1662;49.310;8.134;2022-12-26T15:53:04;11.70;99.90
3300;DHT22;1662;49.310;8.134;2022-12-26T16:03:48;11.70;99.90
3300;DHT22;1662;49.310;8.134;2022-12-26T16:11:49;11.70;99.90
3300;DHT22;1662;49.310;8.134;2022-12-26T16:14:34;11.80;99.90
3300;DHT22;1662;49.310;8.134;2022-12-26T16:25:23;11.70;99.90
3300;DHT22;1662;49.310;8.134;2022-12-26T16:27:56;11.60;99.90
3300;DHT22;1662;49.310;8.134;2022-12-26T16:30:25;11.70;99.90
3300;DHT22;1662;49.310;8.134;2022-12-26T16:32:52;11.70;99.90
3300;DHT22;1662;49.310;8.134;2022-12-26T16:37:50;11.60;99.90
3300;DHT22;1662;49.310;8.134;2022-12-26T16:41:26;11.50;99.90
3300;DHT22;1662;49.310;8.134;2022-12-26T16:43:56;11.40;99.90
3300;DHT22;1662;49.310;8.134;2022-12-26T16:46:26;11.40;99.90
3300;DHT22;1662;49.310;8.134;2022-12-26T16:48:58;11.30;99.90
3300;DHT22;1662;49.310;8.134;2022-12-26T16:51:46;11.10;99.90
3300;DHT22;1662;49.310;8.134;2022-12-26T17:02:33;10.80;99.90
3300;DHT22;1662;49.310;8.134;2022-12-26T17:05:07;10.70;99.90
3300;DHT22;1662;49.310;8.134;2022-12-26T17:07:43;10.60;99.90
3300;DHT22;1662;49.310;8.134;2022-12-26T17:10:18;10.50;99.90
3300;DHT22;1662;49.310;8.134;2022-12-26T17:12:46;10.60;99.90
3300;DHT22;1662;49.310;8.134;2022-12-26T17:17:34;10.70;99.90
3300;DHT22;1662;49.310;8.134;2022-12-26T17:22:51;10.60;99.90
3300;DHT22;1662;49.310;8.134;2022-12-26T17:25:18;10.60;99.90
3300;DHT22;1662;49.310;8.134;2022-12-26T17:30:38;10.30;99.90
3300;DHT22;1662;49.310;8.134;2022-12-26T17:36:14;10.30;99.90
3300;DHT22;1662;49.310;8.134;2022-12-26T17:38:41;10.20;99.90
3300;DHT22;1662;49.310;8.134;2022-12-26T17:41:07;10.20;99.90
3300;DHT22;1662;49.310;8.134;2022-12-26T17:43:36;10.20;99.90
3300;DHT22;1662;49.310;8.134;2022-12-26T17:46:03;10.20;99.90
3300;DHT22;1662;49.310;8.134;2022-12-26T17:48:29;10.20;99.90
3300;DHT22;1662;49.310;8.134;2022-12-26T17:51:01;10.10;99.90
3300;DHT22;1662;49.310;8.134;2022-12-26T17:55:38;10.10;99.90
3300;DHT22;1662;49.310;8.134;2022-12-26T17:58:11;10.00;99.90
3300;DHT22;1662;49.310;8.134;2022-12-26T18:00:37;9.90;99.90
3300;DHT22;1662;49.310;8.134;2022-12-26T18:03:03;9.90;99.90
3300;DHT22;1662;49.310;8.134;2022-12-26T18:05:32;9.90;99.90
3300;DHT22;1662;49.310;8.134;2022-12-26T18:07:58;9.90;99.90
3300;DHT22;1662;49.310;8.134;2022-12-26T18:10:25;9.90;99.90
3300;DHT22;1662;49.310;8.134;2022-12-26T18:15:28;9.80;99.90
3300;DHT22;1662;49.310;8.134;2022-12-26T18:17:55;9.80;99.90
3300;DHT22;1662;49.310;8.134;2022-12-26T18:20:26;9.70;99.90
3300;DHT22;1662;49.310;8.134;2022-12-26T18:22:53;9.70;99.90
3300;DHT22;1662;49.310;8.134;2022-12-26T18:25:21;9.60;99.90
3300;DHT22;1662;49.310;8.134;2022-12-26T18:27:48;9.50;99.90
3300;DHT22;1662;49.310;8.134;2022-12-26T18:30:19;9.40;99.90
3300;DHT22;1662;49.310;8.134;2022-12-26T18:34:42;9.40;99.90
3300;DHT22;1662;49.310;8.134;2022-12-26T18:37:10;9.30;99.90
3300;DHT22;1662;49.310;8.134;2022-12-26T18:39:36;9.40;99.90
3300;DHT22;1662;49.310;8.134;2022-12-26T18:42:02;9.30;99.90
3300;DHT22;1662;49.310;8.134;2022-12-26T18:44:27;9.30;99.90
3300;DHT22;1662;49.310;8.134;2022-12-26T18:46:53;9.40;99.90
3300;DHT22;1662;49.310;8.134;2022-12-26T18:51:55;9.40;99.90
3300;DHT22;1662;49.310;8.134;2022-12-26T18:54:21;9.30;99.90
3300;DHT22;1662;49.310;8.134;2022-12-26T18:56:46;9.30;99.90
3300;DHT22;1662;49.310;8.134;2022-12-26T18:59:12;9.30;99.90
3300;DHT22;1662;49.310;8.134;2022-12-26T19:01:37;9.20;99.90
3300;DHT22;1662;49.310;8.134;2022-12-26T19:04:03;9.30;99.90
3300;DHT22;1662;49.310;8.134;2022-12-26T19:06:30;9.20;99.90
3300;DHT22;1662;49.310;8.134;2022-12-26T19:11:24;9.30;99.90
3300;DHT22;1662;49.310;8.134;2022-12-26T19:13:50;9.40;99.90
3300;DHT22;1662;49.310;8.134;2022-12-26T19:16:15;9.20;99.90
3300;DHT22;1662;49.310;8.134;2022-12-26T19:18:41;9.20;99.90
3300;DHT22;1662;49.310;8.134;2022-12-26T19:21:14;9.10;99.90
3300;DHT22;1662;49.310;8.134;2022-12-26T19:23:41;9.10;99.90
3300;DHT22;1662;49.310;8.134;2022-12-26T19:26:11;8.90;99.90
3300;DHT22;1662;49.310;8.134;2022-12-26T19:31:12;8.90;99.90
3300;DHT22;1662;49.310;8.134;2022-12-26T19:33:38;9.00;99.90
3300;DHT22;1662;49.310;8.134;2022-12-26T19:36:06;9.00;99.90
3300;DHT22;1662;49.310;8.134;2022-12-26T19:38:32;9.00;99.90
3300;DHT22;1662;49.310;8.134;2022-12-26T19:41:16;9.00;99.90
3300;DHT22;1662;49.310;8.134;2022-12-26T19:43:42;9.00;99.90
3300;DHT22;1662;49.310;8.134;2022-12-26T19:46:10;8.90;99.90
3300;DHT22;1662;49.310;8.134;2022-12-26T19:50:34;8.80;99.90
3300;DHT22;1662;49.310;8.134;2022-12-26T19:52:59;8.80;99.90
3300;DHT22;1662;49.310;8.134;2022-12-26T19:55:25;8.80;99.90
3300;DHT22;1662;49.310;8.134;2022-12-26T19:57:51;8.90;99.90
3300;DHT22;1662;49.310;8.134;2022-12-26T20:00:16;8.80;99.90
3300;DHT22;1662;49.310;8.134;2022-12-26T20:02:42;8.80;99.90
3300;DHT22;1662;49.310;8.134;2022-12-26T20:05:08;8.80;99.90
3300;DHT22;1662;49.310;8.134;2022-12-26T20:09:45;8.80;99.90
3300;DHT22;1662;49.310;8.134;2022-12-26T20:12:10;8.70;99.90
3300;DHT22;1662;49.310;8.134;2022-12-26T20:14:36;8.70;99.90
3300;DHT22;1662;49.310;8.134;2022-12-26T20:17:01;8.60;99.90
3300;DHT22;1662;49.310;8.134;2022-12-26T20:19:27;8.60;99.90
3300;DHT22;1662;49.310;8.134;2022-12-26T20:21:53;8.50;99.90
3300;DHT22;1662;49.310;8.134;2022-12-26T20:24:19;8.60;99.90
3300;DHT22;1662;49.310;8.134;2022-12-26T20:28:01;8.60;99.90
3300;DHT22;1662;49.310;8.134;2022-12-26T20:30:31;8.40;99.90
3300;DHT22;1662;49.310;8.134;2022-12-26T20:32:57;8.50;99.90
3300;DHT22;1662;49.310;8.134;2022-12-26T20:35:25;8.50;99.90
3300;DHT22;1662;49.310;8.134;2022-12-26T20:37:50;8.50;99.90
3300;DHT22;1662;49.310;8.134;2022-12-26T20:40:16;8.40;99.90
3300;DHT22;1662;49.310;8.134;2022-12-26T20:42:41;8.40;99.90
3300;DHT22;1662;49.310;8.134;2022-12-26T20:47:25;8.30;99.90
3300;DHT22;1662;49.310;8.134;2022-12-26T20:49:51;8.20;99.90
3300;DHT22;1662;49.310;8.134;2022-12-26T20:52:16;8.20;99.90
3300;DHT22;1662;49.310;8.134;2022-12-26T20:54:43;8.20;99.90
3300;DHT22;1662;49.310;8.134;2022-12-26T20:57:09;8.20;99.90
3300;DHT22;1662;49.310;8.134;2022-12-26T20:59:34;8.10;99.90
3300;DHT22;1662;49.310;8.134;2022-12-26T21:02:00;8.10;99.90
3300;DHT22;1662;49.310;8.134;2022-12-26T21:06:28;8.10;99.90
3300;DHT22;1662;49.310;8.134;2022-12-26T21:08:54;8.10;99.90
3300;DHT22;1662;49.310;8.134;2022-12-26T21:11:31;8.00;99.90
3300;DHT22;1662;49.310;8.134;2022-12-26T21:14:03;8.10;99.90
3300;DHT22;1662;49.310;8.134;2022-12-26T21:16:50;8.00;99.90
3300;DHT22;1662;49.310;8.134;2022-12-26T21:19:17;8.00;99.90
3300;DHT22;1662;49.310;8.134;2022-12-26T21:21:45;8.00;99.90
3300;DHT22;1662;49.310;8.134;2022-12-26T21:26:37;8.00;99.90
3300;DHT22;1662;49.310;8.134;2022-12-26T21:29:05;8.00;99.90
3300;DHT22;1662;49.310;8.134;2022-12-26T21:31:32;7.90;99.90
3300;DHT22;1662;49.310;8.134;2022-12-26T21:33:59;7.90;99.90
3300;DHT22;1662;49.310;8.134;2022-12-26T21:36:26;7.80;99.90
3300;DHT22;1662;49.310;8.134;2022-12-26T21:38:55;7.90;99.90
3300;DHT22;1662;49.310;8.134;2022-12-26T21:41:22;7.90;99.90
3300;DHT22;1662;49.310;8.134;2022-12-26T21:46:11;7.90;99.90
3300;DHT22;1662;49.310;8.134;2022-12-26T21:48:40;7.80;99.90
3300;DHT22;1662;49.310;8.134;2022-12-26T21:51:16;7.80;99.90
3300;DHT22;1662;49.310;8.134;2022-12-26T21:53:42;7.80;99.90
3300;DHT22;1662;49.310;8.134;2022-12-26T21:56:12;7.80;99.90
3300;DHT22;1662;49.310;8.134;2022-12-26T21:58:39;7.80;99.90
3300;DHT22;1662;49.310;8.134;2022-12-26T22:01:24;7.70;99.90
3300;DHT22;1662;49.310;8.134;2022-12-26T22:05:58;7.70;99.90
3300;DHT22;1662;49.310;8.134;2022-12-26T22:08:23;7.70;99.90
3300;DHT22;1662;49.310;8.134;2022-12-26T22:10:49;7.60;99.90
3300;DHT22;1662;49.310;8.134;2022-12-26T22:13:41;7.60;99.90
3300;DHT22;1662;49.310;8.134;2022-12-26T22:16:09;7.50;99.90
3300;DHT22;1662;49.310;8.134;2022-12-26T22:18:45;7.50;99.90